Time;durP1;ratioP1;P1;durP2;ratioP2;P2;SDS_P1;SDS_P2;PMS_P1;PMS_P2;Temp;Humidity;BMP_temperature;BMP_pressure;BME280_temperature;BME280_humidity;BME280_pressure;Samples;Min_cycle;Max_cycle;Signal;HPM_P1;HPM_P2
2022/10/24 00:02:04;;;;;;;44.45;9.18;;;;;;;13.03;55.72;100103.63;5075548;28;20028;-68
2022/10/24 00:04:30;;;;;;;61.70;9.38;;;;;;;12.97;54.93;100104.13;5057170;28;20031;-68
2022/10/24 00:06:57;;;;;;;46.22;8.52;;;;;;;13.09;54.48;100109.06;5075232;28;20025;-68
2022/10/24 00:09:22;;;;;;;68.10;10.20;;;;;;;13.07;54.27;100106.56;5074679;28;20466;-68
2022/10/24 00:11:48;;;;;;;82.55;12.15;;;;;;;13.17;53.59;100092.16;5053518;28;20025;-68
2022/10/24 00:14:13;;;;;;;60.75;10.27;;;;;;;13.35;53.56;100097.72;5055085;28;20024;-68
2022/10/24 00:16:39;;;;;;;32.85;8.52;;;;;;;13.40;53.86;100099.50;5053991;28;20526;-68
2022/10/24 00:19:04;;;;;;;23.08;6.75;;;;;;;13.43;54.13;100093.19;5075058;28;20021;-68
2022/10/24 00:21:30;;;;;;;17.35;7.32;;;;;;;13.50;53.87;100084.25;5074828;28;20403;-68
2022/10/24 00:23:55;;;;;;;23.70;7.22;;;;;;;13.57;54.09;100088.19;5057076;28;20182;-68
2022/10/24 00:26:20;;;;;;;23.83;7.20;;;;;;;13.49;54.43;100091.84;5075151;28;20024;-68
2022/10/24 00:28:46;;;;;;;30.30;6.88;;;;;;;13.29;55.00;100088.66;5056897;28;20028;-68
2022/10/24 00:31:14;;;;;;;26.23;7.95;;;;;;;13.23;55.20;100087.19;5074125;28;20568;-68
2022/10/24 00:33:42;;;;;;;35.35;9.30;;;;;;;13.06;55.79;100080.50;5074737;28;20021;-68
2022/10/24 00:36:17;;;;;;;95.82;13.13;;;;;;;12.74;56.58;100084.75;5074318;28;20060;-68
2022/10/24 00:38:42;;;;;;;140.68;13.98;;;;;;;12.63;56.17;100079.47;5074799;28;20554;-69
2022/10/24 00:41:14;;;;;;;132.20;15.38;;;;;;;12.28;56.48;100078.72;5074609;28;20036;-68
2022/10/24 00:43:39;;;;;;;123.25;16.17;;;;;;;12.16;56.40;100065.38;5074655;28;20505;-68
2022/10/24 00:46:05;;;;;;;103.60;11.88;;;;;;;12.44;55.89;100071.44;5072122;28;20036;-68
2022/10/24 00:48:45;;;;;;;122.45;13.70;;;;;;;12.60;55.12;100070.91;5073238;28;20052;-68
2022/10/24 00:51:24;;;;;;;117.43;12.80;;;;;;;12.57;55.12;100071.59;5074734;28;20016;-68
2022/10/24 00:53:55;;;;;;;87.60;10.95;;;;;;;12.59;55.29;100058.03;5074101;28;20024;-68
2022/10/24 00:56:24;;;;;;;88.20;12.27;;;;;;;12.44;55.45;100054.63;5061807;28;20498;-68
2022/10/24 00:58:52;;;;;;;92.88;13.02;;;;;;;12.54;55.46;100063.81;5074390;28;20112;-68
2022/10/24 01:01:18;;;;;;;126.57;12.30;;;;;;;12.63;55.19;100057.03;5074204;28;20012;-68
2022/10/24 01:03:43;;;;;;;70.07;11.50;;;;;;;12.78;54.52;100060.44;5055281;28;20505;-68
2022/10/24 01:06:36;;;;;;;96.63;11.98;;;;;;;12.78;54.41;100058.44;5055881;28;20505;-68
2022/10/24 01:09:29;;;;;;;115.32;11.75;;;;;;;12.53;54.70;100053.75;5073880;28;20403;-68
2022/10/24 01:12:16;;;;;;;107.75;12.77;;;;;;;12.28;55.58;100050.66;5073896;28;20112;-68
2022/10/24 01:14:52;;;;;;;99.55;13.75;;;;;;;12.25;55.18;100054.16;5073444;28;20036;-68
2022/10/24 01:17:40;;;;;;;105.90;13.30;;;;;;;11.99;56.11;100049.34;5056112;28;20531;-68
2022/10/24 01:20:24;;;;;;;85.38;12.93;;;;;;;11.76;56.59;100049.50;5055918;28;20111;-68
2022/10/24 01:23:21;;;;;;;100.35;12.35;;;;;;;11.71;57.79;100055.28;5073866;28;20394;-68
2022/10/24 01:25:49;;;;;;;94.55;13.98;;;;;;;11.57;57.84;100061.84;5073527;28;20029;-68
2022/10/24 01:28:23;;;;;;;102.57;11.57;;;;;;;11.60;57.13;100060.38;5073551;28;20055;-68
2022/10/24 01:30:56;;;;;;;68.07;12.80;;;;;;;11.59;57.43;100064.34;5072933;28;20043;-68
2022/10/24 01:33:48;;;;;;;70.05;9.32;;;;;;;11.61;57.49;100062.88;5055607;28;20027;-68
2022/10/24 01:36:42;;;;;;;88.50;11.43;;;;;;;11.79;56.63;100062.88;5053490;28;20048;-68
2022/10/24 01:39:12;;;;;;;70.43;9.60;;;;;;;11.47;57.44;100065.00;5053039;28;20154;-68
2022/10/24 01:41:40;;;;;;;71.72;9.75;;;;;;;11.26;58.40;100073.16;5053551;28;20028;-68
2022/10/24 01:44:38;;;;;;;128.77;14.27;;;;;;;11.04;58.73;100066.47;5060763;28;20463;-68
2022/10/24 01:47:29;;;;;;;123.45;13.93;;;;;;;10.93;58.74;100075.19;5073413;28;20028;-68
2022/10/24 01:50:02;;;;;;;145.20;14.90;;;;;;;10.81;59.39;100080.56;5073269;28;20077;-68
2022/10/24 01:52:32;;;;;;;154.35;15.07;;;;;;;10.81;59.86;100075.78;5055063;28;20159;-68
2022/10/24 01:54:58;;;;;;;109.33;11.87;;;;;;;10.62;60.57;100072.41;5072984;28;20020;-68
2022/10/24 01:57:28;;;;;;;123.30;15.55;;;;;;;10.52;61.69;100068.72;5072475;28;20165;-68
2022/10/24 01:59:54;;;;;;;96.90;13.20;;;;;;;10.62;62.19;100075.22;5050919;28;20618;-68
2022/10/24 02:02:19;;;;;;;100.65;11.82;;;;;;;10.81;62.18;100070.19;5052849;28;20037;-68
2022/10/24 02:05:02;;;;;;;49.08;10.50;;;;;;;10.68;62.65;100068.31;5066581;28;20032;-68
2022/10/24 02:07:29;;;;;;;38.67;10.60;;;;;;;10.53;63.84;100073.19;5054893;28;20020;-68
2022/10/24 02:10:04;;;;;;;42.25;9.30;;;;;;;10.50;64.20;100073.81;5072475;28;20503;-68
2022/10/24 02:12:30;;;;;;;43.75;9.13;;;;;;;10.60;63.81;100080.28;5053091;28;20021;-68
2022/10/24 02:15:06;;;;;;;38.75;9.18;;;;;;;10.55;63.83;100072.84;5067013;28;20054;-68
2022/10/24 02:17:32;;;;;;;36.47;8.80;;;;;;;10.61;64.48;100093.94;5072366;28;20105;-68
2022/10/24 02:19:59;;;;;;;36.88;9.35;;;;;;;10.44;64.72;100083.47;5054850;28;20024;-68
2022/10/24 02:22:36;;;;;;;33.40;8.68;;;;;;;10.30;66.04;100079.91;5072698;28;20521;-68
2022/10/24 02:25:13;;;;;;;20.90;8.23;;;;;;;10.42;65.69;100082.97;5054269;28;20111;-68
2022/10/24 02:27:45;;;;;;;20.38;7.63;;;;;;;10.25;65.67;100092.84;5048692;28;20509;-68
2022/10/24 02:30:15;;;;;;;33.58;8.90;;;;;;;10.17;66.90;100088.03;5052705;28;20033;-68
2022/10/24 02:32:45;;;;;;;19.10;10.38;;;;;;;10.21;66.97;100091.84;5052434;28;20127;-68
2022/10/24 02:35:14;;;;;;;19.65;8.13;;;;;;;10.36;66.45;100081.41;5068640;28;20111;-68
2022/10/24 02:37:48;;;;;;;23.20;8.20;;;;;;;10.53;65.90;100087.16;5072552;28;20033;-68
2022/10/24 02:40:16;;;;;;;16.98;7.78;;;;;;;10.84;65.07;100091.13;5072525;28;20443;-68
2022/10/24 02:42:43;;;;;;;17.40;8.80;;;;;;;11.13;64.07;100080.53;5071110;28;20035;-68
2022/10/24 02:45:11;;;;;;;13.73;9.57;;;;;;;10.99;64.21;100077.84;5072128;28;20475;-68
2022/10/24 02:47:39;;;;;;;15.88;8.75;;;;;;;10.77;65.20;100080.38;5072065;28;20153;-68
2022/10/24 02:50:05;;;;;;;16.33;9.05;;;;;;;10.64;65.30;100079.31;5072141;28;20090;-68
2022/10/24 02:52:32;;;;;;;25.13;9.65;;;;;;;10.66;65.00;100081.81;5072053;28;20458;-68
2022/10/24 02:54:57;;;;;;;20.20;8.80;;;;;;;10.62;65.46;100084.41;5072073;28;20031;-68
2022/10/24 02:57:24;;;;;;;20.42;8.80;;;;;;;10.55;65.64;100072.03;5046816;28;20412;-68
2022/10/24 02:59:49;;;;;;;40.47;8.45;;;;;;;10.42;65.85;100080.19;5072247;28;20397;-68
2022/10/24 03:02:14;;;;;;;17.48;7.28;;;;;;;10.42;66.14;100080.19;5068972;28;20032;-68
2022/10/24 03:04:40;;;;;;;22.80;7.35;;;;;;;10.40;66.17;100071.25;5069258;28;20445;-68
2022/10/24 03:07:06;;;;;;;39.42;6.85;;;;;;;10.33;66.46;100073.66;5069243;28;20067;-68
2022/10/24 03:09:33;;;;;;;46.70;10.07;;;;;;;10.45;66.03;100078.72;5053487;28;20037;-68
2022/10/24 03:11:58;;;;;;;21.73;8.10;;;;;;;10.22;67.35;100079.50;5052372;28;20072;-68
2022/10/24 03:14:24;;;;;;;38.95;9.95;;;;;;;9.95;67.82;100080.44;5053362;28;20039;-68
2022/10/24 03:16:49;;;;;;;30.60;8.40;;;;;;;10.00;68.11;100073.91;5053683;28;20029;-68
2022/10/24 03:19:15;;;;;;;49.78;9.48;;;;;;;10.18;66.82;100077.66;5053715;28;20028;-68
2022/10/24 03:21:41;;;;;;;23.50;7.35;;;;;;;10.22;67.32;100076.72;5071888;28;20082;-68
2022/10/24 03:24:07;;;;;;;19.92;7.68;;;;;;;10.11;67.84;100064.97;5071491;28;20325;-68
2022/10/24 03:26:33;;;;;;;18.95;8.15;;;;;;;10.10;68.14;100068.09;5071329;28;20470;-68
2022/10/24 03:28:58;;;;;;;16.00;6.38;;;;;;;9.96;68.66;100056.97;5071634;28;20032;-68
2022/10/24 03:31:24;;;;;;;12.77;7.00;;;;;;;9.88;69.66;100066.91;5071672;28;20058;-68
2022/10/24 03:33:50;;;;;;;12.48;6.43;;;;;;;10.06;68.99;100064.28;5053004;28;20460;-68
2022/10/24 03:36:15;;;;;;;14.00;6.38;;;;;;;10.38;67.46;100067.97;5071522;28;20036;-68
2022/10/24 03:38:41;;;;;;;9.90;6.70;;;;;;;10.25;66.80;100064.88;5071456;28;20380;-68
2022/10/24 03:41:06;;;;;;;19.35;6.35;;;;;;;10.21;66.77;100069.47;5070840;28;20029;-68
2022/10/24 03:43:32;;;;;;;18.33;7.28;;;;;;;10.04;66.80;100069.38;5071705;28;20037;-68
2022/10/24 03:45:58;;;;;;;27.65;8.15;;;;;;;9.73;67.21;100065.34;5071306;28;20032;-68
2022/10/24 03:48:24;;;;;;;39.60;8.07;;;;;;;9.73;67.31;100064.50;5071124;28;20036;-68
2022/10/24 03:50:49;;;;;;;51.78;9.27;;;;;;;9.79;67.39;100068.84;5067229;28;20037;-68
2022/10/24 03:53:15;;;;;;;78.22;9.95;;;;;;;9.53;67.67;100070.22;5053158;28;20107;-68
2022/10/24 03:55:40;;;;;;;35.13;8.02;;;;;;;9.66;67.97;100059.34;5038839;28;20029;-68
2022/10/24 03:58:06;;;;;;;28.17;8.70;;;;;;;9.75;67.55;100063.03;5071220;28;20016;-68
2022/10/24 04:00:37;;;;;;;38.53;9.00;;;;;;;9.85;67.39;100067.56;5052738;28;20431;-68
2022/10/24 04:03:03;;;;;;;45.35;10.75;;;;;;;9.71;68.55;100067.59;5067762;28;20051;-68
2022/10/24 04:05:28;;;;;;;33.03;13.02;;;;;;;9.89;67.73;100067.75;5070824;28;20036;-68
2022/10/24 04:07:54;;;;;;;108.85;73.80;;;;;;;9.92;68.17;100056.78;5070881;28;20029;-68
2022/10/24 04:10:19;;;;;;;91.47;62.65;;;;;;;9.60;69.24;100066.19;5069760;28;20052;-68
2022/10/24 04:12:44;;;;;;;29.70;14.40;;;;;;;9.48;69.79;100066.72;5066878;28;20029;-68
2022/10/24 04:15:10;;;;;;;41.33;10.25;;;;;;;9.31;69.68;100059.81;5050296;28;20065;-66
2022/10/24 04:17:36;;;;;;;15.57;9.80;;;;;;;9.20;70.10;100061.19;5067653;28;20040;-66
2022/10/24 04:20:03;;;;;;;31.13;10.38;;;;;;;9.24;69.88;100062.19;5069451;28;20480;-68
2022/10/24 04:22:29;;;;;;;21.65;9.90;;;;;;;9.39;69.58;100061.06;5071481;28;20028;-67
2022/10/24 04:24:54;;;;;;;27.50;9.80;;;;;;;9.24;70.07;100065.84;5065633;28;20027;-67
2022/10/24 04:27:19;;;;;;;23.13;9.40;;;;;;;8.99;70.97;100064.38;5038456;28;20056;-66
2022/10/24 04:29:45;;;;;;;39.88;11.07;;;;;;;8.99;71.16;100061.59;5054210;28;20032;-67
2022/10/24 04:32:10;;;;;;;41.22;11.75;;;;;;;8.87;71.51;100067.69;5036402;28;20507;-66
2022/10/24 04:34:36;;;;;;;60.17;11.75;;;;;;;8.97;70.77;100075.84;5049567;28;20024;-67
2022/10/24 04:37:02;;;;;;;38.30;11.30;;;;;;;8.91;73.02;100074.31;5056315;28;20086;-69
2022/10/24 04:39:28;;;;;;;48.15;13.68;;;;;;;8.93;72.51;100066.44;5073396;28;20029;-68
2022/10/24 04:41:53;;;;;;;53.85;12.98;;;;;;;8.94;73.23;100073.69;5056466;28;20028;-67
2022/10/24 04:44:18;;;;;;;74.32;14.00;;;;;;;8.97;73.10;100069.44;5073679;28;20024;-70
2022/10/24 04:46:44;;;;;;;76.82;13.98;;;;;;;9.00;73.15;100066.03;5072042;28;20031;-72
2022/10/24 04:49:09;;;;;;;100.60;15.85;;;;;;;8.88;72.89;100065.72;5055284;28;20029;-67
2022/10/24 04:51:35;;;;;;;107.32;14.48;;;;;;;8.78;73.72;100067.56;5056518;28;20024;-66
2022/10/24 04:54:00;;;;;;;101.78;14.80;;;;;;;8.90;73.27;100077.41;5073185;28;20066;-66
2022/10/24 04:56:26;;;;;;;82.60;13.95;;;;;;;8.87;72.97;100067.69;5072929;28;20025;-67
2022/10/24 04:58:52;;;;;;;58.35;12.05;;;;;;;8.79;74.42;100072.00;5071329;28;20048;-66
2022/10/24 05:01:17;;;;;;;74.00;12.75;;;;;;;9.02;73.85;100074.91;5071603;28;20024;-67
2022/10/24 05:03:43;;;;;;;56.35;11.55;;;;;;;8.94;73.81;100070.06;5071444;28;20056;-67
2022/10/24 05:06:08;;;;;;;75.32;15.10;;;;;;;8.98;73.90;100073.91;5071483;28;20031;-67
2022/10/24 05:08:35;;;;;;;46.75;13.50;;;;;;;8.84;74.21;100063.56;5070426;28;20395;-66
2022/10/24 05:11:00;;;;;;;50.22;12.80;;;;;;;9.01;73.91;100078.03;5070468;28;20036;-67
2022/10/24 05:13:26;;;;;;;47.47;11.13;;;;;;;9.11;73.90;100083.38;5068932;28;20056;-67
2022/10/24 05:15:52;;;;;;;41.60;10.82;;;;;;;9.23;73.27;100080.09;5070854;28;20035;-67
2022/10/24 05:18:18;;;;;;;43.90;10.05;;;;;;;9.34;72.84;100077.91;5073276;28;20020;-67
2022/10/24 05:20:43;;;;;;;54.33;10.88;;;;;;;9.35;72.82;100080.38;5055319;28;20566;-67
2022/10/24 05:23:09;;;;;;;39.33;11.10;;;;;;;9.48;73.02;100083.47;5072236;28;20424;-66
2022/10/24 05:25:34;;;;;;;40.95;10.60;;;;;;;9.62;72.99;100094.63;5073116;28;20070;-66
2022/10/24 05:28:00;;;;;;;42.22;9.43;;;;;;;9.68;72.26;100091.41;5072334;28;20461;-66
2022/10/24 05:30:25;;;;;;;60.55;11.27;;;;;;;9.86;71.94;100091.56;5069924;28;20055;-68
2022/10/24 05:32:51;;;;;;;43.78;11.82;;;;;;;9.95;71.73;100088.84;5054916;28;20032;-67
2022/10/24 05:35:16;;;;;;;45.78;10.07;;;;;;;10.12;71.60;100096.53;5072678;28;20024;-67
2022/10/24 05:37:42;;;;;;;33.97;8.98;;;;;;;10.55;70.14;100088.81;5067309;28;20025;-67
2022/10/24 05:40:10;;;;;;;17.75;8.32;;;;;;;10.48;70.41;100087.28;5050365;28;20403;-67
2022/10/24 05:42:37;;;;;;;24.23;10.70;;;;;;;10.54;69.81;100093.56;5052848;28;20029;-66
2022/10/24 05:45:07;;;;;;;14.57;8.32;;;;;;;10.76;69.38;100094.69;5072460;28;20489;-67
2022/10/24 05:47:33;;;;;;;19.67;7.60;;;;;;;10.76;69.81;100089.09;5072730;28;20042;-67
2022/10/24 05:49:58;;;;;;;20.50;9.00;;;;;;;10.87;69.45;100089.66;5071142;28;20025;-68
2022/10/24 05:52:24;;;;;;;35.78;8.88;;;;;;;10.64;70.67;100098.91;5054230;28;20029;-67
2022/10/24 05:54:49;;;;;;;23.90;9.43;;;;;;;10.52;71.34;100098.66;5059996;28;20395;-67
2022/10/24 05:57:15;;;;;;;24.75;7.88;;;;;;;10.55;71.73;100106.41;5063123;28;20503;-67
2022/10/24 05:59:40;;;;;;;19.83;8.38;;;;;;;10.56;71.29;100101.66;5047320;28;20452;-68
2022/10/24 06:02:06;;;;;;;29.63;8.73;;;;;;;10.59;71.38;100112.19;5062084;28;20067;-67
2022/10/24 06:04:31;;;;;;;41.97;9.40;;;;;;;10.70;70.80;100113.59;5052441;28;20024;-67
2022/10/24 06:06:57;;;;;;;18.60;8.43;;;;;;;10.61;71.21;100109.91;5049087;28;20388;-70
2022/10/24 06:09:22;;;;;;;17.27;9.23;;;;;;;10.71;71.04;100114.41;5063542;28;20044;-69
2022/10/24 06:11:47;;;;;;;30.80;12.57;;;;;;;10.77;70.89;100121.53;5072280;28;20020;-67
2022/10/24 06:14:13;;;;;;;30.42;15.43;;;;;;;10.74;70.64;100124.97;5069525;28;20036;-69
2022/10/24 06:16:38;;;;;;;49.17;19.13;;;;;;;10.78;71.26;100126.81;5069651;28;20021;-67
2022/10/24 06:19:04;;;;;;;33.03;15.40;;;;;;;11.02;70.27;100113.56;5068842;28;20020;-71
2022/10/24 06:21:30;;;;;;;29.00;12.15;;;;;;;11.29;69.67;100112.53;5069008;28;20028;-69
2022/10/24 06:23:56;;;;;;;29.00;11.60;;;;;;;11.58;68.72;100115.91;5053903;28;20479;-69
2022/10/24 06:26:22;;;;;;;22.05;9.15;;;;;;;11.83;67.65;100108.72;5061354;28;20060;-70
2022/10/24 06:28:47;;;;;;;17.33;8.85;;;;;;;11.87;67.19;100104.09;5069126;28;20054;-67
2022/10/24 06:31:13;;;;;;;14.43;9.60;;;;;;;12.11;66.69;100110.38;5071655;28;20032;-70
2022/10/24 06:33:39;;;;;;;19.95;9.30;;;;;;;12.42;65.61;100103.78;5071744;28;20032;-69
2022/10/24 06:36:08;;;;;;;16.73;7.03;;;;;;;12.48;65.22;100111.69;5057806;28;20024;-68
2022/10/24 06:38:34;;;;;;;9.35;6.72;;;;;;;12.74;64.53;100110.00;5068464;28;20028;-79
2022/10/24 06:41:06;;;;;;;15.68;6.97;;;;;;;13.03;63.56;100103.63;5031844;28;20053;-68
2022/10/24 06:43:32;;;;;;;14.75;6.75;;;;;;;13.06;62.38;100102.13;5051299;28;20102;-68
2022/10/24 06:45:57;;;;;;;14.23;6.65;;;;;;;13.20;62.54;100107.53;5051325;28;20033;-68
2022/10/24 06:48:23;;;;;;;12.05;7.20;;;;;;;13.28;62.43;100103.03;5029539;28;20037;-68
2022/10/24 06:50:48;;;;;;;16.27;6.95;;;;;;;13.32;62.24;100112.41;5046712;28;20037;-67
2022/10/24 06:53:14;;;;;;;10.55;6.35;;;;;;;13.44;61.86;100115.34;5043618;28;20037;-69
2022/10/24 06:55:39;;;;;;;22.20;7.32;;;;;;;13.54;61.53;100119.78;5031734;28;20033;-68
2022/10/24 06:58:05;;;;;;;27.80;8.52;;;;;;;13.54;61.24;100118.94;5050230;28;20553;-68
2022/10/24 07:00:36;;;;;;;12.02;6.28;;;;;;;13.68;61.26;100115.91;5048629;28;20056;-69
2022/10/24 07:03:01;;;;;;;;;;;;;;;13.77;61.24;100116.66;5051701;28;20159;-70
2022/10/24 07:05:27;;;;;;;21.17;7.53;;;;;;;13.97;60.49;100115.03;5051424;28;19975;-71
2022/10/24 07:07:52;;;;;;;12.88;7.00;;;;;;;14.18;59.94;100111.41;5051046;28;20491;-69
2022/10/24 07:10:18;;;;;;;13.90;5.95;;;;;;;14.15;59.35;100117.69;5049552;28;20110;-69
2022/10/24 07:12:43;;;;;;;9.45;5.93;;;;;;;14.29;59.05;100106.16;5047937;28;20535;-73
2022/10/24 07:15:09;;;;;;;11.23;6.10;;;;;;;14.32;58.98;100111.94;5051139;28;20013;-72
2022/10/24 07:17:43;;;;;;;17.42;7.35;;;;;;;14.57;59.03;100109.22;5047625;28;20021;-73
2022/10/24 07:20:09;;;;;;;20.52;5.97;;;;;;;14.87;57.79;100111.09;5051095;28;20051;-70
2022/10/24 07:22:35;;;;;;;21.45;7.15;;;;;;;14.90;57.10;100110.38;5051086;28;20577;-69
2022/10/24 07:25:01;;;;;;;13.20;7.03;;;;;;;14.96;57.25;100103.38;5051034;28;20025;-69
2022/10/24 07:27:27;;;;;;;10.20;5.80;;;;;;;15.26;56.18;100102.31;5049566;28;20155;-70
2022/10/24 07:29:52;;;;;;;7.18;4.80;;;;;;;15.25;55.58;100104.31;5042319;28;20545;-72
2022/10/24 07:32:19;;;;;;;9.88;5.07;;;;;;;15.48;55.24;100103.84;5036868;28;20028;-73
2022/10/24 07:34:46;;;;;;;7.75;4.50;;;;;;;15.61;54.27;100098.22;5050419;28;20051;-72
2022/10/24 07:37:12;;;;;;;9.63;5.28;;;;;;;15.78;54.09;100099.94;5048137;28;20029;-73
2022/10/24 07:39:38;;;;;;;12.05;5.43;;;;;;;16.07;53.25;100106.47;5048137;28;20021;-76
2022/10/24 07:42:03;;;;;;;7.82;5.57;;;;;;;16.26;52.36;100108.66;5050696;28;20025;-75
2022/10/24 07:44:29;;;;;;;10.25;5.50;;;;;;;16.34;51.62;100106.84;5048776;28;20057;-73
2022/10/24 07:46:54;;;;;;;9.15;4.63;;;;;;;16.41;51.63;100105.09;5030460;28;20024;-75
2022/10/24 07:49:20;;;;;;;7.82;4.47;;;;;;;16.54;50.66;100110.69;5048012;28;20033;-76
2022/10/24 07:51:45;;;;;;;7.80;4.68;;;;;;;16.55;50.62;100101.81;5050459;28;20055;-75
2022/10/24 07:54:11;;;;;;;8.95;4.43;;;;;;;16.82;49.59;100092.88;5050798;28;20399;-75
2022/10/24 07:56:36;;;;;;;7.28;3.55;;;;;;;16.94;49.16;100092.78;5051096;28;20406;-75
2022/10/24 07:59:02;;;;;;;7.97;4.22;;;;;;;16.96;48.94;100083.97;5052920;28;20017;-75
2022/10/24 08:01:28;;;;;;;5.97;4.03;;;;;;;17.30;48.48;100094.91;5049864;28;20487;-74
2022/10/24 08:03:54;;;;;;;9.23;4.10;;;;;;;17.59;47.60;100095.59;5052883;28;20025;-74
2022/10/24 08:06:23;;;;;;;7.80;4.20;;;;;;;17.61;46.66;100107.34;5054247;28;20507;-74
2022/10/24 08:08:49;;;;;;;25.30;5.33;;;;;;;17.58;47.49;100102.44;5034383;28;20410;-77
2022/10/24 08:11:18;;;;;;;23.55;4.78;;;;;;;17.90;46.49;100086.22;5053874;28;20053;-75
2022/10/24 08:13:43;;;;;;;20.33;4.80;;;;;;;17.98;46.25;100089.22;5054572;28;20040;-75
2022/10/24 08:16:11;;;;;;;10.25;4.32;;;;;;;18.24;46.56;100088.59;5051657;28;20480;-77
2022/10/24 08:18:37;;;;;;;15.93;4.53;;;;;;;18.58;45.04;100088.88;5044822;28;20020;-76
2022/10/24 08:21:05;;;;;;;13.80;5.07;;;;;;;18.70;45.07;100092.69;5054052;28;20078;-76
2022/10/24 08:23:32;;;;;;;14.35;5.38;;;;;;;18.89;44.89;100087.00;5036320;28;20033;-77
2022/10/24 08:25:58;;;;;;;23.40;13.23;;;;;;;19.19;44.67;100085.53;5034677;28;20036;-78
2022/10/24 08:28:24;;;;;;;29.77;7.93;;;;;;;19.30;43.54;100089.34;5044542;28;20025;-76
2022/10/24 08:31:17;;;;;;;16.52;5.65;;;;;;;19.55;42.59;100083.25;5027926;28;20052;-80
2022/10/24 08:33:42;;;;;;;29.60;13.40;;;;;;;19.72;42.17;100079.06;5049741;28;20057;-79
2022/10/24 08:36:25;;;;;;;342.85;126.95;;;;;;;19.80;42.45;100076.34;5053506;28;20063;-79
2022/10/24 08:38:51;;;;;;;58.40;19.48;;;;;;;19.94;41.75;100068.03;5053796;28;20017;-80
2022/10/24 08:41:38;;;;;;;21.05;9.30;;;;;;;20.12;41.63;100056.91;5034288;28;20021;-84
2022/10/24 08:44:23;;;;;;;30.60;6.57;;;;;;;19.75;42.34;100060.44;5041458;28;20029;-84
2022/10/24 08:47:20;;;;;;;12.63;6.10;;;;;;;20.06;41.99;100061.28;5053270;28;20581;-84
2022/10/24 08:49:48;;;;;;;14.45;5.65;;;;;;;20.13;41.69;100061.38;5052362;28;20539;-83
2022/10/24 08:52:28;;;;;;;16.08;6.70;;;;;;;20.30;41.07;100050.63;5050839;28;20457;-82
2022/10/24 08:54:56;;;;;;;10.90;6.15;;;;;;;20.25;40.98;100048.94;5016092;28;20060;-81
2022/10/24 08:57:27;;;;;;;36.10;7.00;;;;;;;20.34;41.20;100048.66;5033670;28;20101;-80
2022/10/24 08:59:56;;;;;;;11.27;5.88;;;;;;;20.42;41.31;100052.41;5027646;28;20032;-79
2022/10/24 09:02:29;;;;;;;16.15;6.13;;;;;;;20.57;41.13;100054.19;5027230;28;20105;-80
2022/10/24 09:04:59;;;;;;;21.38;6.32;;;;;;;20.81;40.78;100042.63;5024518;28;20035;-80
2022/10/24 09:07:25;;;;;;;23.15;9.18;;;;;;;20.92;41.16;100037.09;5033420;28;20041;-81
2022/10/24 09:10:12;;;;;;;42.15;14.13;;;;;;;21.16;40.50;100038.50;5035127;28;20053;-80
2022/10/24 09:12:38;;;;;;;73.28;35.03;;;;;;;21.18;40.31;100036.09;5035042;28;20055;-80
2022/10/24 09:15:14;;;;;;;39.80;9.27;;;;;;;21.25;40.21;100026.81;5034888;28;20132;-82
2022/10/24 09:17:41;;;;;;;13.38;5.55;;;;;;;21.29;39.80;100036.97;5049943;28;20344;-81
2022/10/24 09:20:27;;;;;;;13.55;6.50;;;;;;;21.32;39.91;100035.38;5034325;28;20024;-81
2022/10/24 09:22:56;;;;;;;18.65;5.55;;;;;;;21.39;39.44;100021.22;5031929;28;20025;-81
2022/10/24 09:25:28;;;;;;;15.32;5.55;;;;;;;21.51;39.44;100020.06;5015559;28;20021;-80
2022/10/24 09:27:54;;;;;;;17.38;5.38;;;;;;;21.47;38.91;100013.53;5040248;28;20013;-80
2022/10/24 09:30:24;;;;;;;15.57;5.45;;;;;;;21.56;39.11;100016.00;5046810;28;20036;-80
2022/10/24 09:32:50;;;;;;;19.40;5.30;;;;;;;21.65;38.70;100002.25;5026940;28;20029;-78
2022/10/24 09:35:22;;;;;;;24.55;7.18;;;;;;;21.80;39.37;100002.34;5020041;28;20079;-78
2022/10/24 09:37:54;;;;;;;22.98;7.10;;;;;;;21.88;39.35;100004.03;5050366;28;20029;-78
2022/10/24 09:40:26;;;;;;;18.77;5.97;;;;;;;21.96;38.65;100002.84;5033309;28;20021;-78
2022/10/24 09:42:52;;;;;;;19.63;5.25;;;;;;;22.02;38.20;99997.56;5048174;28;20024;-79
2022/10/24 09:45:58;;;;;;;14.20;4.82;;;;;;;21.93;38.75;99986.53;5032039;28;20048;-79
2022/10/24 09:48:45;;;;;;;11.23;5.22;;;;;;;22.18;38.00;99982.97;4988691;28;20832;-77
2022/10/24 09:51:20;;;;;;;9.38;5.18;;;;;;;22.12;37.83;99982.53;5039063;28;20030;-79
2022/10/24 09:54:22;;;;;;;48.92;7.00;;;;;;;22.28;37.32;99975.69;5027874;28;20021;-79
2022/10/24 09:56:50;;;;;;;14.75;4.70;;;;;;;22.34;37.53;99974.06;5048567;28;20024;-77
2022/10/24 09:59:36;;;;;;;8.02;4.47;;;;;;;22.45;37.56;99976.94;5047553;28;20383;-76
2022/10/24 10:02:23;;;;;;;14.48;4.50;;;;;;;22.58;36.73;99983.91;5054789;28;20412;-76
2022/10/24 10:05:14;;;;;;;10.20;4.82;;;;;;;22.59;36.74;99970.47;5038493;28;20021;-75
2022/10/24 10:07:47;;;;;;;8.95;3.95;;;;;;;22.72;36.51;99968.03;5048114;28;20025;-73
2022/10/24 10:10:36;;;;;;;15.27;4.70;;;;;;;22.64;36.46;99957.84;5037154;28;20045;-77
2022/10/24 10:13:26;;;;;;;16.50;5.55;;;;;;;22.65;36.69;99960.28;5043324;28;20530;-76
2022/10/24 10:16:00;;;;;;;14.50;5.15;;;;;;;22.81;36.40;99954.19;5044406;28;20021;-76
2022/10/24 10:18:28;;;;;;;18.13;5.72;;;;;;;22.93;36.32;99952.94;5046744;28;20476;-71
2022/10/24 10:21:01;;;;;;;10.25;4.22;;;;;;;23.01;35.79;99945.19;5048787;28;20403;-77
2022/10/24 10:23:33;;;;;;;13.18;3.97;;;;;;;23.05;35.97;99946.03;5048291;28;20036;-70
2022/10/24 10:26:12;;;;;;;18.40;4.00;;;;;;;23.15;35.94;99944.38;5051321;28;20036;-71
2022/10/24 10:28:45;;;;;;;11.02;5.20;;;;;;;23.02;36.12;99934.63;5032520;28;20029;-70
2022/10/24 10:31:11;;;;;;;8.32;3.60;;;;;;;23.09;35.73;99937.44;5033316;28;20454;-70
2022/10/24 10:34:00;;;;;;;7.95;4.18;;;;;;;23.09;36.22;99932.56;5050791;28;20028;-71
2022/10/24 10:36:34;;;;;;;9.27;5.60;;;;;;;23.35;35.75;99929.66;5050652;28;20033;-72
2022/10/24 10:39:05;;;;;;;14.18;4.30;;;;;;;23.50;35.03;99934.13;5050710;28;20029;-71
2022/10/24 10:41:59;;;;;;;18.10;4.15;;;;;;;23.62;35.67;99923.47;5050803;28;20412;-71
2022/10/24 10:45:21;;;;;;;20.85;5.28;;;;;;;23.62;35.36;99918.56;5043869;28;20052;-70
2022/10/24 10:48:20;;;;;;;13.80;3.72;;;;;;;23.69;34.51;99909.97;5000494;28;20491;-70
2022/10/24 10:51:23;;;;;;;8.60;4.03;;;;;;;23.82;34.18;99903.81;5046800;28;20032;-70
2022/10/24 10:54:03;;;;;;;23.48;3.80;;;;;;;23.98;34.74;99906.97;5024752;28;20545;-72
2022/10/24 10:56:50;;;;;;;19.45;4.50;;;;;;;23.99;34.64;99899.22;5049365;28;20070;-71
2022/10/24 10:59:25;;;;;;;16.35;4.38;;;;;;;24.14;34.53;99902.00;5049127;28;20360;-70
2022/10/24 11:02:09;;;;;;;9.85;3.45;;;;;;;24.23;34.28;99899.50;5049042;28;20052;-70
2022/10/24 11:05:00;;;;;;;14.48;5.10;;;;;;;24.18;34.54;99897.09;5031916;28;20060;-73
2022/10/24 11:07:43;;;;;;;10.68;3.75;;;;;;;24.27;34.45;99888.06;5049406;28;20036;-71
2022/10/24 11:10:14;;;;;;;7.13;3.55;;;;;;;24.33;34.32;99887.19;5048798;28;20051;-71
2022/10/24 11:12:41;;;;;;;9.77;3.08;;;;;;;24.28;34.12;99886.81;5048319;28;20091;-71
2022/10/24 11:15:16;;;;;;;9.93;4.10;;;;;;;24.18;34.30;99885.66;5046413;28;20025;-70
2022/10/24 11:17:54;;;;;;;17.85;3.47;;;;;;;24.33;34.20;99881.47;5045953;28;20087;-71
2022/10/24 11:20:22;;;;;;;11.45;3.85;;;;;;;24.45;34.36;99885.06;5043734;28;20151;-71
2022/10/24 11:22:54;;;;;;;15.73;4.57;;;;;;;24.46;34.47;99878.91;5049703;28;20020;-71
2022/10/24 11:25:29;;;;;;;14.52;5.00;;;;;;;24.35;34.75;99869.59;5045297;28;20075;-72
2022/10/24 11:28:06;;;;;;;17.38;3.78;;;;;;;24.60;34.22;99865.72;5046132;28;20170;-70
2022/10/24 11:30:50;;;;;;;8.88;4.15;;;;;;;24.83;33.52;99861.47;5048298;28;20032;-70
2022/10/24 11:33:22;;;;;;;9.38;4.10;;;;;;;24.91;33.82;99857.28;5048950;28;20027;-71